Terminal Aerodrome Forecast
Issued by NWS

Home | Current Version | Previous Version | Text Only | Print | Product List | Glossary On
Versions: 1 2 3 4 5 6 7 8 9 10 11 12 13 14 15 16 17 18 19 20 21 22 23 24 25 26 27 28 29 30 31
000
FTUS46 KOTX 281742 CCA
TAFMWH
TAF COR
KMWH 281742Z 2818/2918 30010KT P6SM FEW100
     FM282100 26008KT P6SM SCT070
     FM290300 29006KT P6SM SKC
     FM291700 18007KT P6SM BKN150 BKN200=

USA.gov is the U.S. government's official web portal to all federal, state and local government web resources and services.